»·PEaware :: N416JK KBLH-KWJF

N416JK :: KBLH-KWJF

FLIGHT INFORMATION

Flight Status: Arrived
Operator: Privately registered:
United States
More flights under this callsign
Pilot: John K. (4202)
Aircraft: Unknown
(EPIC)
More flights by this aircraft type
Origin: KBLH Blythe
United States
Destination: KWJF Gen Fox
United States
More flights between these airports :: More routes between these airports
Route: +BLH V16 V137 PMD
File this flight plan on PilotEdge
Remarks:
Altitude:
(Current/Filed)
14,000ft
Speed:
(Current/Filed)
250kts
Departed: 08-May-18 02:46 PM
Arrived: 08-May-18 03:38 PM
Distance/Time
Traveled:
186nm/0:52
Distance/Time
To Go:
Arrived

Flight Plot

Page will automatically refresh every two minutes.

Flight plan parsing failed; only flown route is shown


Map Options




Map Legend


Flown Route
Filed Route
Departure Airport
Arrival Airport
Navaid (VOR, NDB)
Fix

Horizontal Profiles

Position Reports

Time Latitude Longitude Heading Altitude Ground
Speed
08-May-18 14:37 33.614053 -114.713095 90 401ft 0kts
08-May-18 14:38 33.614053 -114.713095 90 401ft 0kts
08-May-18 14:39 33.614053 -114.713095 90 401ft 0kts
08-May-18 14:40 33.614053 -114.713095 90 401ft 0kts
08-May-18 14:41 33.614053 -114.713095 90 401ft 0kts
08-May-18 14:42 33.614053 -114.713095 90 401ft 0kts
08-May-18 14:43 33.614274 -114.714244 269 401ft 0kts
08-May-18 14:44 33.614274 -114.714244 269 401ft 0kts
08-May-18 14:45 33.614274 -114.714244 269 401ft 0kts
08-May-18 14:46 33.617255 -114.716899 358 401ft 54kts
08-May-18 14:47 33.632481 -114.717391 167 401ft 7kts
08-May-18 14:48 33.630334 -114.717420 149 401ft 0kts
08-May-18 14:49 33.630334 -114.717420 149 401ft 0kts
08-May-18 14:50 33.630198 -114.717204 106 401ft 6kts
08-May-18 14:51 33.612823 -114.717832 190 1281ft 136kts
08-May-18 14:52 33.588648 -114.774182 273 2587ft 264kts
08-May-18 14:53 33.611688 -114.862690 283 3596ft 281kts
08-May-18 14:54 33.628461 -114.952984 281 4590ft 275kts
08-May-18 14:55 33.643449 -115.040311 280 5566ft 272kts
08-May-18 14:56 33.658530 -115.128698 280 6657ft 269kts
08-May-18 14:57 33.673315 -115.215601 280 8051ft 268kts
08-May-18 14:58 33.688073 -115.303978 279 9466ft 269kts
08-May-18 14:59 33.702728 -115.391961 280 10840ft 268kts
08-May-18 15:00 33.717426 -115.480546 280 12242ft 279kts
08-May-18 15:01 33.732785 -115.573702 279 13481ft 290kts
08-May-18 15:02 33.748715 -115.671146 280 13972ft 309kts
08-May-18 15:03 33.765437 -115.773801 279 13970ft 312kts
08-May-18 15:04 33.782002 -115.875709 280 13972ft 310kts
08-May-18 15:05 33.798475 -115.977734 280 13971ft 311kts
08-May-18 15:06 33.814426 -116.079514 280 13973ft 310kts
08-May-18 15:07 33.830745 -116.180477 280 13974ft 310kts
08-May-18 15:08 33.846803 -116.281289 279 13996ft 310kts
08-May-18 15:09 33.862862 -116.383050 279 14020ft 309kts
08-May-18 15:10 33.893631 -116.478655 298 14027ft 311kts
08-May-18 15:11 33.936431 -116.569170 298 14027ft 311kts
08-May-18 15:12 33.979270 -116.659640 298 14031ft 311kts
08-May-18 15:13 34.022056 -116.750124 298 14070ft 310kts
08-May-18 15:14 34.064414 -116.840028 298 14106ft 305kts
08-May-18 15:15 34.105991 -116.928399 298 14127ft 302kts
08-May-18 15:16 34.147081 -117.015962 298 14127ft 299kts
08-May-18 15:17 34.187662 -117.102667 298 14126ft 295kts
08-May-18 15:18 34.227312 -117.186830 299 14128ft 292kts
08-May-18 15:19 34.267034 -117.272121 299 14131ft 290kts
08-May-18 15:20 34.306564 -117.357177 299 14139ft 290kts
08-May-18 15:21 34.346219 -117.442778 299 14017ft 292kts
08-May-18 15:22 34.385802 -117.528421 299 14023ft 292kts
08-May-18 15:23 34.425323 -117.614015 299 14026ft 291kts
08-May-18 15:24 34.464963 -117.700157 299 13251ft 295kts
08-May-18 15:25 34.505432 -117.788275 298 11797ft 303kts
08-May-18 15:26 34.546545 -117.876256 309 10266ft 296kts
08-May-18 15:27 34.610071 -117.936752 322 8787ft 292kts
08-May-18 15:28 34.673671 -117.996596 322 7292ft 291kts
08-May-18 15:29 34.732055 -118.052660 322 6022ft 235kts
08-May-18 15:30 34.769910 -118.088920 322 5997ft 123kts
08-May-18 15:31 34.794428 -118.112215 321 6016ft 124kts
08-May-18 15:32 34.824026 -118.140414 321 6006ft 140kts
08-May-18 15:33 34.854801 -118.169858 315 6000ft 141kts
08-May-18 15:34 34.835956 -118.196915 161 4930ft 159kts
08-May-18 15:35 34.797809 -118.181895 161 4192ft 118kts
08-May-18 15:36 34.768485 -118.171505 176 3745ft 116kts
08-May-18 15:37 34.748035 -118.192536 249 2623ft 83kts
08-May-18 15:38 34.742760 -118.212088 263 2355ft 36kts
08-May-18 15:39 34.740003 -118.216398 199 2355ft 15kts
08-May-18 15:40 34.738880 -118.217843 249 2355ft 0kts

Navigation Log

Ident Type
Flight plan parsing failed, navigation log unavailable